createdAt,value
2018-05-01T05:52:26.995Z,100703.34
2018-05-01T05:54:55.679Z,100705.83
2018-05-01T05:57:24.323Z,100710.42
2018-05-01T05:59:53.245Z,100702.34
2018-05-01T06:02:21.106Z,100703.52
2018-05-01T06:04:49.366Z,100705.16
2018-05-01T06:07:17.564Z,100706.84
2018-05-01T06:09:45.796Z,100710.09
2018-05-01T06:12:13.929Z,100710.41
2018-05-01T06:14:42.136Z,100711.91
2018-05-01T06:17:09.957Z,100711.92
2018-05-01T06:19:38.206Z,100711.64
2018-05-01T06:22:06.428Z,100711.83
2018-05-01T06:24:34.702Z,100713.28
2018-05-01T06:27:03.254Z,100720.28
2018-05-01T06:29:32.064Z,100719.23
2018-05-01T06:31:59.893Z,100722.08
2018-05-01T06:34:28.231Z,100713.25
2018-05-01T06:36:56.157Z,100711.59
2018-05-01T06:39:24.123Z,100717.16
2018-05-01T06:41:52.398Z,100710.00
2018-05-01T06:44:20.207Z,100705.65
2018-05-01T06:46:49.268Z,100714.94
2018-05-01T06:49:17.451Z,100707.91
2018-05-01T06:51:45.621Z,100697.69
2018-05-01T06:54:14.232Z,100701.05
2018-05-01T06:56:42.051Z,100699.26
2018-05-01T06:59:10.187Z,100706.86
2018-05-01T07:01:38.009Z,100709.20
2018-05-01T07:04:06.610Z,100714.00
2018-05-01T07:06:34.458Z,100707.87
2018-05-01T07:09:02.659Z,100710.86
2018-05-01T07:11:30.546Z,100706.38
2018-05-01T07:13:58.367Z,100714.91
2018-05-01T07:16:26.188Z,100709.59
2018-05-01T07:18:54.486Z,100705.42
2018-05-01T07:21:23.138Z,100713.57
2018-05-01T07:23:50.959Z,100712.54
2018-05-01T07:26:18.776Z,100710.63
2018-05-01T07:28:48.501Z,100713.44
2018-05-01T07:31:16.329Z,100711.42
2018-05-01T07:33:44.633Z,100708.50
2018-05-01T07:36:13.507Z,100712.61
2018-05-01T07:38:41.998Z,100713.97
2018-05-01T07:41:10.132Z,100718.84
2018-05-01T07:43:38.119Z,100719.11
2018-05-01T07:46:06.120Z,100716.23
2018-05-01T07:48:33.987Z,100727.56
2018-05-01T07:51:02.052Z,100728.69
2018-05-01T07:53:30.037Z,100720.56
2018-05-01T07:55:58.540Z,100720.02
2018-05-01T07:58:26.439Z,100715.88
2018-05-01T08:00:54.417Z,100724.30
2018-05-01T08:03:23.487Z,100719.08
2018-05-01T08:05:51.355Z,100715.69
2018-05-01T08:08:19.261Z,100716.20
2018-05-01T08:10:47.911Z,100714.22
2018-05-01T08:13:15.930Z,100713.13
2018-05-01T08:15:43.907Z,100719.51
2018-05-01T08:18:12.379Z,100714.89
2018-05-01T08:20:40.298Z,100718.48
2018-05-01T08:23:08.629Z,100718.24
2018-05-01T08:25:37.419Z,100713.13
2018-05-01T08:28:05.815Z,100706.09
2018-05-01T08:30:35.259Z,100704.74
2018-05-01T08:33:03.441Z,100708.75
2018-05-01T08:35:32.617Z,100706.16
2018-05-01T08:38:01.397Z,100708.81
2018-05-01T08:40:31.660Z,100709.72
2018-05-01T08:43:00.020Z,100716.22
2018-05-01T08:45:29.416Z,100720.22
2018-05-01T08:47:57.668Z,100724.12
2018-05-01T08:50:25.880Z,100720.27
2018-05-01T08:52:54.608Z,100727.94
2018-05-01T08:55:23.743Z,100731.56
2018-05-01T08:57:52.406Z,100725.64
2018-05-01T09:00:21.489Z,100729.98
2018-05-01T09:02:51.309Z,100735.48
2018-05-01T09:05:19.584Z,100737.20
2018-05-01T09:07:50.471Z,100745.80
2018-05-01T09:10:19.128Z,100736.47
2018-05-01T09:12:47.344Z,100728.78
2018-05-01T09:15:16.270Z,100726.38
2018-05-01T09:17:44.638Z,100717.03
2018-05-01T09:20:12.616Z,100715.64
2018-05-01T09:22:40.494Z,100715.70
2018-05-01T09:25:08.508Z,100708.81
2018-05-01T09:27:36.348Z,100713.92
2018-05-01T09:30:04.740Z,100713.61
2018-05-01T09:32:32.678Z,100708.33
2018-05-01T09:35:00.762Z,100712.46
2018-05-01T09:37:30.532Z,100723.64
2018-05-01T09:39:58.674Z,100721.16
2018-05-01T09:42:26.871Z,100721.00
2018-05-01T09:44:54.738Z,100722.97
2018-05-01T09:47:23.233Z,100729.63
2018-05-01T09:49:51.221Z,100724.52
2018-05-01T09:52:19.642Z,100727.98
2018-05-01T09:54:48.173Z,100719.97
2018-05-01T09:57:17.162Z,100725.22
2018-05-01T09:59:45.672Z,100727.94
2018-05-01T10:02:14.059Z,100725.69
2018-05-01T10:04:42.414Z,100719.45
2018-05-01T10:07:10.801Z,100730.58
2018-05-01T10:09:39.186Z,100724.41
2018-05-01T10:12:07.558Z,100727.57
2018-05-01T10:14:38.829Z,100726.35
2018-05-01T10:17:08.246Z,100736.67
2018-05-01T10:19:36.652Z,100728.50
2018-05-01T10:22:05.413Z,100732.63
2018-05-01T10:24:34.636Z,100736.81
2018-05-01T10:27:04.649Z,100737.75
2018-05-01T10:29:33.223Z,100731.23
2018-05-01T10:32:01.951Z,100725.98
2018-05-01T10:34:30.338Z,100737.23
2018-05-01T10:36:58.942Z,100737.34
2018-05-01T10:39:27.315Z,100737.94
2018-05-01T10:41:55.692Z,100747.58
2018-05-01T10:44:24.243Z,100746.41
2018-05-01T10:46:52.643Z,100753.05
2018-05-01T10:49:21.071Z,100756.09
2018-05-01T10:51:50.611Z,100756.34
2018-05-01T10:54:19.118Z,100751.58
2018-05-01T10:56:47.499Z,100762.06
2018-05-01T10:59:16.279Z,100770.44
2018-05-01T11:01:44.647Z,100766.44
2018-05-01T11:04:13.810Z,100769.10
2018-05-01T11:06:42.186Z,100752.45
2018-05-01T11:09:11.297Z,100758.69
2018-05-01T11:11:39.747Z,100759.16
2018-05-01T11:14:09.554Z,100755.41
2018-05-01T11:16:37.937Z,100761.08
2018-05-01T11:19:07.303Z,100755.97
2018-05-01T11:21:35.664Z,100749.30
2018-05-01T11:24:04.069Z,100743.84
2018-05-01T11:30:04.574Z,100753.96
2018-05-01T11:32:33.551Z,100760.58
2018-05-01T11:35:02.055Z,100757.78
2018-05-01T11:37:30.883Z,100768.69
2018-05-01T11:39:59.363Z,100773.44
2018-05-01T11:42:27.764Z,100773.09
2018-05-01T11:44:57.283Z,100764.86
2018-05-01T11:47:25.665Z,100756.76
2018-05-01T11:49:54.096Z,100747.80
2018-05-01T11:52:23.231Z,100739.96
2018-05-01T11:54:52.694Z,100747.38
2018-05-01T11:57:21.068Z,100741.98
2018-05-01T11:59:49.455Z,100745.84
2018-05-01T12:02:17.932Z,100739.59
2018-05-01T12:04:46.510Z,100738.36
2018-05-01T12:07:14.883Z,100743.06
2018-05-01T12:09:43.484Z,100739.25
2018-05-01T12:12:12.140Z,100738.77
2018-05-01T12:14:40.498Z,100743.81
2018-05-01T12:17:09.045Z,100741.70
2018-05-01T12:19:37.637Z,100743.38
2018-05-01T12:22:06.067Z,100732.27
2018-05-01T12:24:34.431Z,100727.46
2018-05-01T12:27:02.899Z,100745.02
2018-05-01T12:29:32.046Z,100744.64
2018-05-01T12:32:00.499Z,100746.10
2018-05-01T13:35:41.015Z,100693.18
2018-05-01T13:38:10.473Z,100688.72
2018-05-01T13:40:40.360Z,100688.05
2018-05-01T13:43:09.723Z,100696.98
2018-05-01T13:45:40.744Z,100701.85
2018-05-01T13:48:10.178Z,100710.83
2018-05-01T13:50:40.320Z,100710.45
2018-05-01T13:53:10.108Z,100712.69
2018-05-01T13:55:39.524Z,100710.77
2018-05-01T13:58:09.362Z,100689.95
2018-05-01T21:43:18.062Z,101182.59
2018-05-01T21:45:46.433Z,101185.24
2018-05-01T21:48:14.880Z,101182.72
2018-05-01T21:50:43.224Z,101178.18
2018-05-01T21:53:11.587Z,101187.62
2018-05-01T21:55:41.097Z,101189.23
2018-05-01T21:58:09.492Z,101191.31
2018-05-01T22:00:38.097Z,101195.41
2018-05-01T22:03:06.578Z,101199.44
2018-05-01T22:05:35.098Z,101198.73
2018-05-01T22:08:03.710Z,101206.56
2018-05-01T22:10:32.072Z,101206.42
2018-05-01T22:13:00.476Z,101216.09
2018-05-01T22:15:29.327Z,101214.32
2018-05-01T22:17:57.830Z,101225.36
2018-05-01T22:20:26.257Z,101222.45
2018-05-01T22:22:55.797Z,101225.80
2018-05-01T22:25:24.786Z,101223.36
2018-05-01T22:27:53.140Z,101229.86
2018-05-01T22:30:21.502Z,101230.20
2018-05-01T22:35:22.613Z,101245.61
2018-05-01T22:37:51.016Z,101248.44
2018-05-01T22:40:21.376Z,101247.39
2018-05-01T22:42:50.103Z,101254.73
2018-05-01T22:45:19.563Z,101254.03
2018-05-01T22:47:48.274Z,101255.33
2018-05-01T22:50:16.848Z,101263.35
2018-05-01T22:52:45.220Z,101263.50
2018-05-01T22:55:13.985Z,101260.72
2018-05-01T22:57:42.452Z,101261.26
2018-05-01T23:00:10.835Z,101264.76
2018-05-01T23:02:39.206Z,101264.78
2018-05-01T23:05:08.108Z,101266.72
2018-05-01T23:07:36.922Z,101265.53
2018-05-01T23:10:05.302Z,101267.66
2018-05-01T23:12:34.550Z,101272.88
2018-05-01T23:15:02.905Z,101271.83
2018-05-01T23:17:31.297Z,101272.27
2018-05-01T23:19:59.876Z,101271.68
2018-05-01T23:22:28.318Z,101266.62
2018-05-01T23:24:56.678Z,101272.55
2018-05-01T23:27:25.032Z,101265.05
2018-05-01T23:29:53.427Z,101269.26
2018-05-01T23:32:21.792Z,101268.16
2018-05-01T23:34:50.199Z,101265.83
2018-05-01T23:37:18.560Z,101268.59
2018-05-01T23:39:46.916Z,101273.56
2018-05-01T23:42:15.290Z,101271.43
2018-05-01T23:44:43.673Z,101282.36
2018-05-01T23:47:12.082Z,101275.02
2018-05-01T23:49:40.650Z,101286.31
2018-05-01T23:52:09.068Z,101288.03
2018-05-01T23:54:37.377Z,101293.09
2018-05-01T23:57:05.751Z,101295.78
2018-05-01T23:59:34.146Z,101302.70
